createdAt,value
2023-04-25T00:01:16.135Z,97912.11
2023-04-25T00:04:03.709Z,97912.40
2023-04-25T00:06:52.785Z,97906.89
2023-04-25T00:09:40.099Z,97906.18
2023-04-25T00:12:29.137Z,97905.69
2023-04-25T00:15:16.477Z,97903.16
2023-04-25T00:18:04.114Z,97902.67
2023-04-25T00:20:51.270Z,97902.53
2023-04-25T00:23:39.379Z,97899.29
2023-04-25T00:26:27.628Z,97900.91
2023-04-25T00:29:15.508Z,97905.06
2023-04-25T00:32:02.916Z,97908.61
2023-04-25T00:34:50.595Z,97905.58
2023-04-25T00:37:38.040Z,97903.62
2023-04-25T00:40:25.916Z,97905.77
2023-04-25T00:43:13.330Z,97911.10
2023-04-25T00:46:01.519Z,97911.06
2023-04-25T00:48:50.915Z,97912.31
2023-04-25T00:51:38.378Z,97911.71
2023-04-25T00:54:25.730Z,97909.84
2023-04-25T00:57:13.132Z,97909.44
2023-04-25T01:00:01.103Z,97905.75
2023-04-25T01:03:29.333Z,97905.87
2023-04-25T01:06:27.160Z,97903.87
2023-04-25T01:09:16.244Z,97903.28
2023-04-25T01:12:05.593Z,97903.95
2023-04-25T01:14:54.457Z,97902.66
2023-04-25T01:17:45.342Z,97898.73
2023-04-25T01:20:35.164Z,97898.83
2023-04-25T01:23:24.280Z,97900.55
2023-04-25T01:26:14.175Z,97905.08
2023-04-25T01:29:05.960Z,97899.35
2023-04-25T01:31:55.060Z,97898.36
2023-04-25T01:34:44.048Z,97898.23
2023-04-25T01:37:32.610Z,97898.30
2023-04-25T01:40:23.264Z,97898.45
2023-04-25T01:43:13.812Z,97897.30
2023-04-25T01:46:02.839Z,97899.30
2023-04-25T01:48:51.411Z,97901.39
2023-04-25T01:51:40.288Z,97901.80
2023-04-25T01:54:29.096Z,97903.57
2023-04-25T01:57:18.073Z,97907.40
2023-04-25T02:00:08.184Z,97901.73
2023-04-25T02:03:02.874Z,97904.20
2023-04-25T02:05:54.562Z,97903.00
2023-04-25T02:08:43.625Z,97899.49
2023-04-25T02:11:34.352Z,97901.80
2023-04-25T02:14:48.707Z,97900.61
2023-04-25T02:17:42.550Z,97899.09
2023-04-25T02:20:31.844Z,97899.46
2023-04-25T02:23:20.567Z,97896.02
2023-04-25T02:26:09.331Z,97896.54
2023-04-25T02:34:52.780Z,97900.31
2023-04-25T02:37:43.195Z,97903.09
2023-04-25T02:40:32.312Z,97904.85
2023-04-25T02:43:21.749Z,97906.16
2023-04-25T02:46:10.981Z,97905.73
2023-04-25T02:48:59.691Z,97905.27
2023-04-25T02:51:48.744Z,97906.88
2023-04-25T02:54:37.380Z,97906.08
2023-04-25T02:57:26.390Z,97906.17
2023-04-25T03:00:15.362Z,97907.46
2023-04-25T03:03:04.271Z,97906.67
2023-04-25T03:05:53.074Z,97904.36
2023-04-25T03:08:45.719Z,97905.73
2023-04-25T03:11:34.750Z,97904.45
2023-04-25T03:14:24.320Z,97905.79
2023-04-25T03:17:13.084Z,97909.11
2023-04-25T03:20:02.751Z,97909.71
2023-04-25T03:22:51.618Z,97907.67
2023-04-25T03:25:40.799Z,97911.60
2023-04-25T03:28:29.688Z,97916.67
2023-04-25T03:31:19.293Z,97918.17
2023-04-25T03:34:07.980Z,97917.43
2023-04-25T03:36:56.866Z,97915.50
2023-04-25T03:39:45.795Z,97915.85
2023-04-25T03:42:34.708Z,97912.90
2023-04-25T03:45:23.539Z,97916.67
2023-04-25T03:48:12.901Z,97915.73
2023-04-25T03:51:01.706Z,97918.92
2023-04-25T03:53:51.094Z,97922.13
2023-04-25T03:56:42.441Z,97920.09
2023-04-25T03:59:38.971Z,97923.80
2023-04-25T04:02:28.117Z,97925.02
2023-04-25T04:05:17.339Z,97929.95
2023-04-25T04:08:12.459Z,97934.23
2023-04-25T04:11:02.219Z,97934.56
2023-04-25T04:13:50.951Z,97934.94
2023-04-25T04:16:40.188Z,97940.66
2023-04-25T04:19:29.031Z,97940.64
2023-04-25T04:22:26.921Z,97942.85
2023-04-25T04:25:19.140Z,97935.86
2023-04-25T04:28:27.893Z,97941.41
2023-04-25T04:31:23.543Z,97940.41
2023-04-25T04:34:12.762Z,97940.39
2023-04-25T04:37:01.664Z,97945.02
2023-04-25T04:39:51.329Z,97948.15
2023-04-25T04:42:51.246Z,97950.18
2023-04-25T04:46:05.490Z,97948.58
2023-04-25T04:49:23.287Z,97953.89
2023-04-25T04:52:32.471Z,97957.64
2023-04-25T04:55:38.736Z,97962.61
2023-04-25T04:58:53.777Z,97962.71
2023-04-25T05:01:56.087Z,97964.77
2023-04-25T05:05:00.151Z,97965.08
2023-04-25T05:07:48.780Z,97963.58
2023-04-25T05:10:56.017Z,97967.63
2023-04-25T05:14:17.995Z,97965.08
2023-04-25T05:17:12.208Z,97966.93
2023-04-25T05:20:22.757Z,97968.44
2023-04-25T05:23:33.787Z,97968.52
2023-04-25T05:26:31.971Z,97970.75
2023-04-25T05:29:34.443Z,97965.41
2023-04-25T05:32:29.570Z,97969.77
2023-04-25T05:35:19.068Z,97971.39
2023-04-25T05:38:10.776Z,97967.49
2023-04-25T05:41:25.989Z,97970.92
2023-04-25T05:44:22.010Z,97976.10
2023-04-25T05:47:24.649Z,97978.55
2023-04-25T05:50:22.717Z,97983.27
2023-04-25T05:53:18.126Z,97985.74
2023-04-25T05:56:06.739Z,97985.71
2023-04-25T05:58:56.241Z,97990.17
2023-04-25T06:01:44.799Z,97996.46
2023-04-25T06:04:34.325Z,97994.70
2023-04-25T06:10:31.442Z,97997.73
2023-04-25T06:13:21.140Z,97994.48
2023-04-25T06:16:10.732Z,98000.48
2023-04-25T06:18:59.497Z,98001.73
2023-04-25T06:21:48.940Z,98008.23
2023-04-25T06:24:37.633Z,98003.95
2023-04-25T06:27:26.939Z,98005.39
2023-04-25T06:30:16.272Z,98007.84
2023-04-25T06:33:05.220Z,98007.12
2023-04-25T06:35:54.048Z,98007.60
2023-04-25T06:38:46.920Z,98005.83
2023-04-25T06:41:36.202Z,98007.13
2023-04-25T06:44:27.373Z,98007.73
2023-04-25T06:47:16.057Z,98004.66
2023-04-25T06:50:05.997Z,98002.30
2023-04-25T06:52:55.682Z,98006.30
2023-04-25T06:55:45.060Z,98006.26
2023-04-25T06:58:40.699Z,98003.80
2023-04-25T07:01:36.683Z,98006.11
2023-04-25T07:04:28.704Z,98005.14
2023-04-25T07:07:18.888Z,98001.31
2023-04-25T07:10:12.466Z,98003.36
2023-04-25T07:13:02.187Z,97997.59
2023-04-25T07:15:51.028Z,97999.73
2023-04-25T07:18:41.376Z,97998.45
2023-04-25T07:21:29.988Z,98001.01
2023-04-25T07:26:59.479Z,98004.87
2023-04-25T07:30:07.780Z,98001.69
2023-04-25T07:32:56.577Z,98006.98
2023-04-25T07:35:44.239Z,98007.99
2023-04-25T07:38:33.553Z,98006.17
2023-04-25T07:41:21.739Z,98006.64
2023-04-25T07:44:09.304Z,98006.79
2023-04-25T07:46:56.867Z,98008.51
2023-04-25T07:49:45.649Z,98011.37
2023-04-25T07:52:33.150Z,98008.64
2023-04-25T07:55:27.073Z,98015.16
2023-04-25T07:58:22.419Z,98015.15
2023-04-25T08:01:12.631Z,98015.35
2023-04-25T08:04:13.526Z,98015.58
2023-04-25T08:07:14.818Z,98022.70
2023-04-25T08:10:15.191Z,98020.25
2023-04-25T08:13:05.503Z,98023.60
2023-04-25T08:15:53.247Z,98024.16
2023-04-25T08:18:41.040Z,98021.30
2023-04-25T08:21:29.151Z,98019.37
2023-04-25T08:24:17.540Z,98016.64
2023-04-25T08:27:06.972Z,98015.28
2023-04-25T08:29:54.875Z,98019.48
2023-04-25T08:32:42.490Z,98014.91
2023-04-25T08:35:40.263Z,98016.99
2023-04-25T08:38:27.666Z,98019.23
2023-04-25T08:41:15.904Z,98016.94
2023-04-25T08:44:04.713Z,98026.25
2023-04-25T08:46:53.369Z,98028.05
2023-04-25T08:49:49.417Z,98029.61
2023-04-25T08:52:45.659Z,98030.02
2023-04-25T08:55:33.988Z,98031.89
2023-04-25T08:58:21.959Z,98033.30
2023-04-25T09:01:09.934Z,98032.08
2023-04-25T09:04:04.451Z,98038.52
2023-04-25T09:06:51.924Z,98039.77
2023-04-25T09:09:40.121Z,98044.60
2023-04-25T09:12:29.660Z,98049.15
2023-04-25T09:15:20.642Z,98053.02
2023-04-25T09:18:14.612Z,98050.70
2023-04-25T09:21:14.632Z,98054.85
2023-04-25T09:24:05.245Z,98048.85
2023-04-25T09:26:53.071Z,98049.86
2023-04-25T09:29:41.638Z,98052.89
2023-04-25T09:32:30.495Z,98055.34
2023-04-25T09:35:26.847Z,98053.47
2023-04-25T09:38:15.593Z,98051.83
2023-04-25T09:41:29.666Z,98047.14
2023-04-25T09:44:24.903Z,98048.44
2023-04-25T09:47:15.750Z,98047.84
2023-04-25T09:50:14.784Z,98045.55
2023-04-25T09:53:06.060Z,98045.20
2023-04-25T09:56:13.013Z,98046.75
2023-04-25T09:59:00.639Z,98048.96
2023-04-25T10:01:49.750Z,98050.95
2023-04-25T10:04:47.956Z,98048.27
2023-04-25T10:07:43.258Z,98051.98
2023-04-25T10:10:36.605Z,98051.46
2023-04-25T10:13:24.142Z,98048.48
2023-04-25T10:16:12.210Z,98048.98
2023-04-25T10:19:00.142Z,98052.81
2023-04-25T10:21:51.958Z,98053.38
2023-04-25T10:24:40.587Z,98052.25
2023-04-25T10:27:29.065Z,98051.08
2023-04-25T10:30:17.214Z,98051.39
2023-04-25T10:33:18.924Z,98049.16
2023-04-25T10:36:27.478Z,98045.23
2023-04-25T10:39:22.894Z,98044.20
2023-04-25T10:42:10.410Z,98041.83
2023-04-25T10:45:07.411Z,98040.55
2023-04-25T10:47:55.009Z,98036.80
2023-04-25T10:50:42.209Z,98036.73
2023-04-25T10:53:34.423Z,98039.77
2023-04-25T10:56:29.342Z,98039.95
2023-04-25T10:59:19.010Z,98046.86
2023-04-25T11:02:13.499Z,98047.88
2023-04-25T11:05:01.033Z,98049.03
2023-04-25T11:10:45.437Z,98054.02
2023-04-25T11:13:32.870Z,98059.57
2023-04-25T11:16:27.560Z,98058.90
2023-04-25T11:19:15.916Z,98058.23
2023-04-25T11:22:04.100Z,98056.45
2023-04-25T11:24:51.621Z,98055.34
2023-04-25T11:27:50.647Z,98054.39
2023-04-25T11:30:37.924Z,98054.65
2023-04-25T11:33:26.637Z,98055.72
2023-04-25T11:36:13.937Z,98050.32
2023-04-25T11:39:20.159Z,98051.96
2023-04-25T11:45:20.294Z,98054.75
2023-04-25T11:47:39.710Z,98053.66
2023-04-25T11:48:09.066Z,98053.59
2023-04-25T11:50:58.166Z,98055.39
2023-04-25T11:53:47.235Z,98051.14
2023-04-25T11:56:36.300Z,98046.48
2023-04-25T11:59:26.439Z,98048.44
2023-04-25T12:02:28.265Z,98041.10
2023-04-25T12:05:31.171Z,98043.95
2023-04-25T12:08:22.297Z,98045.86
2023-04-25T12:11:22.790Z,98044.34
2023-04-25T12:14:12.360Z,98039.44
2023-04-25T12:17:03.067Z,98039.02
2023-04-25T12:19:52.258Z,98038.20
2023-04-25T12:22:46.003Z,98035.63
2023-04-25T12:25:39.948Z,98041.08
2023-04-25T12:28:28.925Z,98042.96
2023-04-25T12:31:17.914Z,98044.89
2023-04-25T12:34:08.145Z,98041.74
2023-04-25T12:36:58.032Z,98039.94
2023-04-25T12:39:47.210Z,98047.05
2023-04-25T12:42:36.185Z,98045.16
2023-04-25T12:45:25.365Z,98044.92
2023-04-25T12:48:14.316Z,98046.30
2023-04-25T12:51:03.144Z,98044.17
2023-04-25T12:53:53.808Z,98040.59
2023-04-25T12:56:43.293Z,98040.72
2023-04-25T12:59:32.237Z,98039.58
2023-04-25T13:02:21.150Z,98043.23
2023-04-25T13:05:10.288Z,98036.86
2023-04-25T13:07:59.102Z,98037.84
2023-04-25T13:10:49.206Z,98040.36
2023-04-25T13:13:38.241Z,98040.11
2023-04-25T13:16:27.338Z,98041.15
2023-04-25T13:19:16.177Z,98042.33
2023-04-25T13:22:05.588Z,98044.29
2023-04-25T13:24:54.341Z,98044.71
2023-04-25T13:27:45.362Z,98043.44
2023-04-25T13:30:34.241Z,98041.89
2023-04-25T13:33:23.136Z,98044.27
2023-04-25T13:36:12.170Z,98046.55
2023-04-25T13:39:01.115Z,98047.41
2023-04-25T13:41:50.190Z,98049.55
2023-04-25T13:44:39.110Z,98048.95
2023-04-25T13:47:28.965Z,98040.85
2023-04-25T13:50:38.617Z,98047.20
2023-04-25T13:53:40.247Z,98046.27
2023-04-25T13:56:29.411Z,98049.71
2023-04-25T13:59:18.494Z,98048.48
2023-04-25T14:02:08.772Z,98053.27
2023-04-25T14:04:57.636Z,98053.20
2023-04-25T14:07:46.768Z,98056.10
2023-04-25T14:10:36.627Z,98061.00
2023-04-25T14:13:26.314Z,98065.95
2023-04-25T14:16:15.085Z,98063.90
2023-04-25T14:19:04.382Z,98067.88
2023-04-25T14:21:53.069Z,98066.18
2023-04-25T14:24:42.131Z,98066.12
2023-04-25T14:27:31.051Z,98060.50
2023-04-25T14:30:21.485Z,98062.41
2023-04-25T14:33:10.482Z,98064.67
2023-04-25T14:35:59.539Z,98068.23
2023-04-25T14:38:48.401Z,98065.63
2023-04-25T14:41:37.239Z,98066.02
2023-04-25T14:44:26.702Z,98069.17
2023-04-25T14:47:16.663Z,98065.75
2023-04-25T14:50:07.478Z,98065.52
2023-04-25T14:52:59.808Z,98062.39
2023-04-25T14:55:49.270Z,98065.48
2023-04-25T14:58:38.794Z,98067.73
2023-04-25T15:01:28.008Z,98070.31
2023-04-25T15:04:18.708Z,98073.39
2023-04-25T15:07:07.472Z,98076.36
2023-04-25T15:09:57.760Z,98075.48
2023-04-25T15:12:47.816Z,98073.91
2023-04-25T15:15:36.967Z,98078.25
2023-04-25T15:18:25.759Z,98077.25
2023-04-25T15:21:14.694Z,98078.31
2023-04-25T15:24:03.510Z,98077.33
2023-04-25T15:26:52.760Z,98074.39
2023-04-25T15:29:41.376Z,98078.45
2023-04-25T15:32:30.031Z,98075.20
2023-04-25T15:35:19.642Z,98071.93
2023-04-25T15:38:11.435Z,98076.85
2023-04-25T15:41:00.176Z,98080.13
2023-04-25T15:43:49.578Z,98081.23
2023-04-25T15:46:39.403Z,98080.80
2023-04-25T15:49:28.644Z,98080.34
2023-04-25T15:52:21.881Z,98083.65
2023-04-25T15:55:11.820Z,98084.32
2023-04-25T15:58:00.807Z,98074.65
2023-04-25T16:00:50.311Z,98075.15
2023-04-25T16:03:39.484Z,98074.96
2023-04-25T16:06:28.837Z,98072.64
2023-04-25T16:09:18.138Z,98070.29
2023-04-25T16:22:36.582Z,98079.61
2023-04-25T16:25:25.335Z,98076.67
2023-04-25T16:28:14.221Z,98078.15
2023-04-25T16:31:02.947Z,98080.23
2023-04-25T16:33:52.989Z,98080.86
2023-04-25T16:36:41.944Z,98085.77
2023-04-25T16:39:30.895Z,98087.54
2023-04-25T16:42:19.601Z,98087.20
2023-04-25T16:45:09.583Z,98090.83
2023-04-25T16:47:58.656Z,98088.67
2023-04-25T16:51:09.985Z,98091.64
2023-04-25T16:54:02.756Z,98098.37
2023-04-25T16:56:52.721Z,98095.49
2023-04-25T16:59:41.613Z,98097.65
2023-04-25T17:02:30.814Z,98100.57
2023-04-25T17:05:19.753Z,98102.02
2023-04-25T17:08:09.132Z,98104.98
2023-04-25T17:10:57.883Z,98102.97
2023-04-25T17:13:46.900Z,98107.66
2023-04-25T17:16:38.415Z,98106.49
2023-04-25T17:19:28.656Z,98111.29
2023-04-25T17:22:17.538Z,98112.57
2023-04-25T17:25:08.580Z,98113.06
2023-04-25T17:27:57.253Z,98108.95
2023-04-25T17:30:46.922Z,98110.93
2023-04-25T17:33:35.904Z,98112.89
2023-04-25T17:36:41.669Z,98109.98
2023-04-25T17:39:30.351Z,98110.79
2023-04-25T17:42:19.204Z,98118.32
2023-04-25T17:45:09.580Z,98121.71
2023-04-25T17:48:02.275Z,98127.37
2023-04-25T17:50:51.633Z,98130.40
2023-04-25T17:53:40.710Z,98134.70
2023-04-25T17:56:30.713Z,98136.30
2023-04-25T17:59:20.199Z,98141.08
2023-04-25T18:02:09.139Z,98144.61
2023-04-25T18:04:58.146Z,98146.77
2023-04-25T18:07:49.810Z,98148.93
2023-04-25T18:10:39.343Z,98155.56
2023-04-25T18:13:31.089Z,98164.88
2023-04-25T18:16:20.381Z,98173.53
2023-04-25T18:19:15.734Z,98174.77
2023-04-25T18:22:05.220Z,98187.16
2023-04-25T18:24:54.400Z,98188.96
2023-04-25T18:27:43.978Z,98192.52
2023-04-25T18:30:35.839Z,98193.65
2023-04-25T18:33:25.730Z,98200.36
2023-04-25T18:36:14.418Z,98204.14
2023-04-25T18:39:21.485Z,98207.92
2023-04-25T18:42:11.390Z,98213.66
2023-04-25T18:45:00.232Z,98216.55
2023-04-25T18:47:49.240Z,98219.15
2023-04-25T18:50:38.803Z,98220.75
2023-04-25T18:53:28.074Z,98223.06
2023-04-25T18:56:17.727Z,98228.45
2023-04-25T18:59:06.699Z,98233.25
2023-04-25T19:01:56.343Z,98235.69
2023-04-25T19:04:45.099Z,98241.27
2023-04-25T19:07:33.902Z,98240.13
2023-04-25T19:10:22.548Z,98242.27
2023-04-25T19:13:16.118Z,98245.54
2023-04-25T19:16:04.860Z,98245.07
2023-04-25T19:18:55.799Z,98246.02
2023-04-25T19:21:46.949Z,98248.61
2023-04-25T19:24:36.138Z,98249.98
2023-04-25T19:27:27.068Z,98250.40
2023-04-25T19:30:16.499Z,98255.64
2023-04-25T19:33:06.820Z,98253.34
2023-04-25T19:35:56.091Z,98255.50
2023-04-25T19:38:46.195Z,98256.66
2023-04-25T19:41:36.672Z,98264.80
2023-04-25T19:44:25.561Z,98267.94
2023-04-25T19:47:14.529Z,98273.17
2023-04-25T19:50:03.530Z,98271.14
2023-04-25T19:52:53.201Z,98272.20
2023-04-25T19:55:42.492Z,98270.84
2023-04-25T19:58:32.544Z,98274.84
2023-04-25T20:01:24.093Z,98272.25
2023-04-25T20:04:14.553Z,98273.55
2023-04-25T20:07:04.423Z,98270.60
2023-04-25T20:09:54.240Z,98269.94
2023-04-25T20:12:44.747Z,98267.05
2023-04-25T20:15:33.892Z,98270.60
2023-04-25T20:18:22.687Z,98269.40
2023-04-25T20:21:12.512Z,98269.49
2023-04-25T20:24:01.762Z,98275.66
2023-04-25T20:26:50.977Z,98278.48
2023-04-25T20:29:39.737Z,98277.27
2023-04-25T20:32:30.166Z,98278.48
2023-04-25T20:35:19.340Z,98286.49
2023-04-25T20:38:08.470Z,98283.63
2023-04-25T20:40:58.511Z,98286.23
2023-04-25T20:43:48.369Z,98287.73
2023-04-25T20:46:37.797Z,98290.38
2023-04-25T20:49:26.752Z,98290.23
2023-04-25T20:52:16.101Z,98292.08
2023-04-25T20:55:06.476Z,98294.36
2023-04-25T20:57:55.145Z,98294.31
2023-04-25T21:00:44.244Z,98293.95
2023-04-25T21:03:33.919Z,98296.27
2023-04-25T21:06:22.931Z,98296.73
2023-04-25T21:09:11.531Z,98299.13
2023-04-25T21:12:00.267Z,98302.48
2023-04-25T21:14:48.780Z,98305.09
2023-04-25T21:17:37.659Z,98305.27
2023-04-25T21:20:26.323Z,98302.59
2023-04-25T21:23:15.620Z,98303.79
2023-04-25T21:26:07.271Z,98306.64
2023-04-25T21:28:56.655Z,98307.80
2023-04-25T21:31:46.540Z,98308.80
2023-04-25T21:34:35.317Z,98311.42
2023-04-25T21:37:23.885Z,98316.60
2023-04-25T21:40:14.054Z,98320.00
2023-04-25T21:43:02.621Z,98326.77
2023-04-25T21:48:45.820Z,98320.11
2023-04-25T21:51:34.671Z,98324.41
2023-04-25T21:54:23.257Z,98328.45
2023-04-25T21:57:12.129Z,98331.73
2023-04-25T22:00:00.722Z,98337.04
2023-04-25T22:02:49.681Z,98332.86
2023-04-25T22:05:38.241Z,98335.99
2023-04-25T22:08:29.497Z,98340.39
2023-04-25T22:11:18.131Z,98343.12
2023-04-25T22:14:07.635Z,98335.22
2023-04-25T22:16:56.439Z,98337.75
2023-04-25T22:19:45.398Z,98347.69
2023-04-25T22:22:36.187Z,98347.59
2023-04-25T22:25:26.027Z,98347.91
2023-04-25T22:28:15.038Z,98349.43
2023-04-25T22:31:03.903Z,98351.40
2023-04-25T22:33:52.541Z,98355.42
2023-04-25T22:36:41.514Z,98359.06
2023-04-25T22:39:30.552Z,98355.30
2023-04-25T22:42:19.542Z,98357.64
2023-04-25T22:45:09.339Z,98356.07
2023-04-25T22:47:58.719Z,98361.66
2023-04-25T22:50:47.307Z,98367.98
2023-04-25T22:53:39.592Z,98370.13
2023-04-25T22:56:31.364Z,98374.84
2023-04-25T22:59:20.961Z,98373.09
2023-04-25T23:02:09.570Z,98372.35
2023-04-25T23:05:00.307Z,98370.27
2023-04-25T23:07:49.426Z,98367.27
2023-04-25T23:10:38.326Z,98367.95
2023-04-25T23:13:31.615Z,98369.40
2023-04-25T23:16:20.760Z,98371.27
2023-04-25T23:19:09.297Z,98371.03
2023-04-25T23:21:58.336Z,98372.69
2023-04-25T23:24:47.250Z,98380.11
2023-04-25T23:27:37.330Z,98376.74
2023-04-25T23:30:26.382Z,98377.81
2023-04-25T23:33:15.157Z,98383.18
2023-04-25T23:36:03.857Z,98386.92
2023-04-25T23:38:53.436Z,98390.13
2023-04-25T23:41:42.221Z,98396.63
2023-04-25T23:44:31.952Z,98403.10
2023-04-25T23:47:21.042Z,98406.15
2023-04-25T23:50:10.357Z,98406.52
2023-04-25T23:52:58.932Z,98411.02
2023-04-25T23:55:47.981Z,98408.00
2023-04-25T23:58:36.744Z,98411.02
